createdAt,value
2017-05-26T19:24:36.539Z,1011.57
2017-05-26T19:25:36.535Z,1011.56
2017-05-26T19:26:36.529Z,1011.59
2017-05-26T19:27:36.522Z,1011.58
2017-05-26T19:28:36.524Z,1011.62
2017-05-26T19:29:36.511Z,1011.61
2017-05-26T19:30:36.506Z,1011.62
2017-05-26T19:31:36.498Z,1011.62
2017-05-26T19:32:36.494Z,1011.65
2017-05-26T19:33:36.489Z,1011.62
2017-05-26T19:34:36.482Z,1011.62
2017-05-26T19:35:36.477Z,1011.64
2017-05-26T19:36:36.471Z,1011.63
2017-05-26T19:37:36.468Z,1011.61
2017-05-26T19:38:36.460Z,1011.62
2017-05-26T19:39:36.453Z,1011.65
2017-05-26T19:40:36.447Z,1011.64
2017-05-26T19:41:36.442Z,1011.65
2017-05-26T19:42:36.436Z,1011.63
2017-05-26T19:43:36.434Z,1011.57
2017-05-26T19:44:36.427Z,1011.6
2017-05-26T19:45:36.420Z,1011.59
2017-05-26T19:46:36.411Z,1011.6
2017-05-26T19:47:36.409Z,1011.6
2017-05-26T19:48:36.400Z,1011.6
2017-05-26T19:49:36.394Z,1011.55
2017-05-26T19:50:36.387Z,1011.59
2017-05-26T19:51:36.381Z,1011.57
2017-05-26T19:52:36.379Z,1011.61
2017-05-26T19:53:36.373Z,1011.61
2017-05-26T19:54:36.363Z,1011.59
2017-05-26T19:55:36.355Z,1011.59
2017-05-26T19:56:36.357Z,1011.64
2017-05-26T19:57:36.344Z,1011.61
2017-05-26T19:58:36.389Z,1011.64
2017-05-26T19:59:36.331Z,1011.61
2017-05-26T20:00:36.327Z,1011.63
2017-05-26T20:01:36.317Z,1011.6
2017-05-26T20:02:36.312Z,1011.66
2017-05-26T20:03:36.305Z,1011.62
2017-05-26T20:04:36.298Z,1011.64
2017-05-26T20:05:36.293Z,1011.68
2017-05-26T20:07:36.280Z,1011.68
2017-05-26T20:08:36.278Z,1011.69
2017-05-26T20:09:36.269Z,1011.67
2017-05-26T20:10:36.262Z,1011.69
2017-05-26T20:11:36.253Z,1011.67
2017-05-26T20:12:36.246Z,1011.65
2017-05-26T20:13:36.241Z,1011.7
2017-05-26T20:14:36.232Z,1011.72
2017-05-26T20:15:36.227Z,1011.71
2017-05-26T20:16:36.220Z,1011.78
2017-05-26T20:17:36.265Z,1011.77
2017-05-26T20:18:36.206Z,1011.8
2017-05-26T20:19:36.200Z,1011.82
2017-05-26T20:20:36.193Z,1011.81
2017-05-26T20:21:36.187Z,1011.81
2017-05-26T20:22:36.178Z,1011.84
2017-05-26T20:23:36.173Z,1011.86
2017-05-26T20:24:36.167Z,1011.86
2017-05-26T20:25:36.159Z,1011.85
2017-05-26T20:26:36.152Z,1011.86
2017-05-26T20:27:36.144Z,1011.9
2017-05-26T20:28:36.138Z,1011.88
2017-05-26T20:29:36.129Z,1011.89
2017-05-26T20:30:36.125Z,1011.87
2017-05-26T20:31:36.116Z,1011.86
2017-05-26T20:32:36.110Z,1011.88
2017-05-26T20:33:36.102Z,1011.86
2017-05-26T20:34:36.096Z,1011.81
2017-05-26T20:35:36.088Z,1011.84
2017-05-26T20:36:36.083Z,1011.84
2017-05-26T20:37:36.073Z,1011.86
2017-05-26T20:38:36.066Z,1011.85
2017-05-26T20:39:36.061Z,1011.82
2017-05-26T20:40:36.050Z,1011.86
2017-05-26T20:41:36.049Z,1011.83
2017-05-26T20:42:36.037Z,1011.86
2017-05-26T20:43:36.032Z,1011.81
2017-05-26T20:44:36.025Z,1011.81
2017-05-26T20:45:36.014Z,1011.82
2017-05-26T20:46:36.010Z,1011.8
2017-05-26T20:47:36.002Z,1011.78
2017-05-26T20:48:35.995Z,1011.81
2017-05-26T20:49:35.985Z,1011.8
2017-05-26T20:50:35.978Z,1011.77
2017-05-26T20:51:35.975Z,1011.78
2017-05-26T20:52:35.963Z,1011.79
2017-05-26T20:53:35.959Z,1011.76
2017-05-26T20:54:35.951Z,1011.77
2017-05-26T20:55:35.942Z,1011.78
2017-05-26T20:56:35.935Z,1011.77
2017-05-26T20:57:35.940Z,1011.73
2017-05-26T20:58:35.919Z,1011.79
2017-05-26T20:59:35.911Z,1011.76
2017-05-26T21:00:35.903Z,1011.77
2017-05-26T21:01:35.897Z,1011.72
2017-05-26T21:02:35.891Z,1011.77
2017-05-26T21:03:35.881Z,1011.77
2017-05-26T21:04:35.873Z,1011.79
2017-05-26T21:05:35.868Z,1011.77
2017-05-26T21:06:35.859Z,1011.78
2017-05-26T21:07:35.853Z,1011.79
2017-05-26T21:08:35.844Z,1011.82
2017-05-26T21:09:35.856Z,1011.82
2017-05-26T21:10:35.827Z,1011.81
2017-05-26T21:11:35.822Z,1011.78
2017-05-26T21:12:35.813Z,1011.78
2017-05-26T21:13:35.856Z,1011.85
2017-05-26T21:14:35.798Z,1011.82
2017-05-26T21:15:35.790Z,1011.82
2017-05-26T21:16:35.781Z,1011.84
2017-05-26T21:17:35.775Z,1011.81
2017-05-26T21:18:35.766Z,1011.86
2017-05-26T21:19:35.758Z,1011.86
2017-05-26T21:20:35.749Z,1011.88
2017-05-26T21:21:35.742Z,1011.82
2017-05-26T21:22:35.734Z,1011.89
2017-05-26T21:23:35.726Z,1011.84
2017-05-26T21:24:35.717Z,1011.88
2017-05-26T21:25:35.710Z,1011.86
2017-05-26T21:26:35.710Z,1011.88
2017-05-26T21:27:35.718Z,1011.88
2017-05-26T21:28:35.692Z,1011.86
2017-05-26T21:29:35.733Z,1011.85
2017-05-26T21:30:35.672Z,1011.85
2017-05-26T21:31:35.664Z,1011.85
2017-05-26T21:32:35.655Z,1011.86
2017-05-26T21:33:35.647Z,1011.87
2017-05-26T21:34:35.639Z,1011.9
2017-05-26T21:35:35.634Z,1011.87
2017-05-26T21:36:35.623Z,1011.83
2017-05-26T21:37:35.615Z,1011.89
2017-05-26T21:38:35.607Z,1011.87
2017-05-26T21:39:35.598Z,1011.87
2017-05-26T21:40:35.591Z,1011.88
2017-05-26T21:41:35.583Z,1011.87
2017-05-26T21:42:35.574Z,1011.88
2017-05-26T21:43:35.567Z,1011.87
2017-05-26T21:44:35.559Z,1011.86
2017-05-26T21:45:35.552Z,1011.85
2017-05-26T21:46:35.541Z,1011.86
2017-05-26T21:47:35.539Z,1011.85
2017-05-26T21:48:35.526Z,1011.85
2017-05-26T21:49:35.519Z,1011.86
2017-05-26T21:50:35.510Z,1011.87
2017-05-26T21:51:35.501Z,1011.91
2017-05-26T21:52:35.495Z,1011.9
2017-05-26T21:53:35.486Z,1011.93
2017-05-26T21:54:35.477Z,1011.96
2017-05-26T21:55:35.468Z,1011.94
2017-05-26T21:56:35.460Z,1011.93
2017-05-26T21:57:35.453Z,1011.95
2017-05-26T21:58:35.445Z,1011.94
2017-05-26T21:59:35.436Z,1011.98
2017-05-26T22:00:35.428Z,1011.98
2017-05-26T22:01:35.418Z,1011.97
2017-05-26T22:02:35.416Z,1011.96
2017-05-26T22:03:35.402Z,1011.94
2017-05-26T22:04:35.395Z,1011.93
2017-05-26T22:05:35.385Z,1011.95
2017-05-26T22:06:35.385Z,1011.99
2017-05-26T22:07:35.575Z,1011.95
2017-05-26T22:08:35.363Z,1011.98
2017-05-26T22:09:35.351Z,1012.02
2017-05-26T22:10:35.345Z,1012.03
2017-05-26T22:11:35.336Z,1012.05
2017-05-26T22:12:35.327Z,1012.01
2017-05-26T22:13:35.322Z,1012.04
2017-05-26T22:14:35.312Z,1012.04
2017-05-26T22:15:35.301Z,1012.01
2017-05-26T22:16:35.296Z,1012.04
2017-05-26T22:17:35.285Z,1012.07
2017-05-26T22:18:35.277Z,1012.04
2017-05-26T22:19:35.268Z,1012.06
2017-05-26T22:20:35.259Z,1012.03
2017-05-26T22:21:35.251Z,1012.02
2017-05-26T22:22:35.243Z,1012.05
2017-05-26T22:23:35.240Z,1012.03
2017-05-26T22:24:35.227Z,1012.07
2017-05-26T22:25:35.220Z,1012.05
2017-05-26T22:26:35.209Z,1012.06
2017-05-26T22:27:35.200Z,1012.06
2017-05-26T22:28:35.194Z,1012.05
2017-05-26T22:29:35.183Z,1012.04
2017-05-26T22:30:35.193Z,1012.07
2017-05-26T22:31:35.168Z,1012.03
2017-05-26T22:32:35.159Z,1012.01
2017-05-26T22:33:35.207Z,1012.03
2017-05-26T22:34:35.146Z,1012.07
2017-05-26T22:35:35.133Z,1012.02
2017-05-26T22:36:35.125Z,1012.07
2017-05-26T22:37:35.124Z,1012.06
2017-05-26T22:38:35.109Z,1012.03
2017-05-26T22:39:35.103Z,1012.05
2017-05-26T22:40:35.090Z,1012.04
2017-05-26T22:41:35.081Z,1012.05
2017-05-26T22:42:35.073Z,1012.04
2017-05-26T22:43:35.063Z,1012.02
2017-05-26T22:44:35.055Z,1012.02
2017-05-26T22:45:35.047Z,1011.99
2017-05-26T22:46:35.037Z,1011.99
2017-05-26T22:47:35.029Z,1011.96
2017-05-26T22:48:35.021Z,1011.98
2017-05-26T22:49:35.012Z,1011.99
2017-05-26T22:50:35.210Z,1011.98
2017-05-26T22:51:34.994Z,1011.95
2017-05-26T22:52:34.985Z,1011.94
2017-05-26T22:53:34.976Z,1011.92
2017-05-26T22:54:35.039Z,1011.89
2017-05-26T22:55:34.960Z,1011.88
2017-05-26T22:56:34.951Z,1011.88
2017-05-26T22:57:34.943Z,1011.91
2017-05-26T22:58:34.933Z,1011.9
2017-05-26T22:59:34.924Z,1011.87
2017-05-26T23:00:34.916Z,1011.89
2017-05-26T23:01:34.904Z,1011.91
2017-05-26T23:02:34.896Z,1011.87
2017-05-26T23:03:34.886Z,1011.9
2017-05-26T23:04:34.880Z,1011.85
2017-05-26T23:05:34.871Z,1011.85
2017-05-26T23:06:34.860Z,1011.84
2017-05-26T23:07:34.852Z,1011.88
2017-05-26T23:08:34.842Z,1011.81
2017-05-26T23:09:34.835Z,1011.85
2017-05-26T23:10:34.823Z,1011.83
2017-05-26T23:11:34.815Z,1011.82
2017-05-26T23:12:34.807Z,1011.8
2017-05-26T23:13:34.798Z,1011.77
2017-05-26T23:14:34.839Z,1011.76
2017-05-26T23:15:34.778Z,1011.74
2017-05-26T23:16:34.773Z,1011.73
2017-05-26T23:17:34.763Z,1011.77
2017-05-26T23:18:34.751Z,1011.76
2017-05-26T23:19:34.742Z,1011.73
2017-05-26T23:20:34.770Z,1011.71
2017-05-26T23:21:34.723Z,1011.72
2017-05-26T23:22:34.716Z,1011.7
2017-05-26T23:23:34.707Z,1011.73
2017-05-26T23:24:34.697Z,1011.75
2017-05-26T23:25:34.686Z,1011.75
2017-05-26T23:26:34.678Z,1011.78
2017-05-26T23:27:34.672Z,1011.74
2017-05-26T23:28:34.660Z,1011.76
2017-05-26T23:29:34.652Z,1011.76
2017-05-26T23:30:34.649Z,1011.71
2017-05-26T23:31:34.633Z,1011.72
2017-05-26T23:32:34.625Z,1011.7
2017-05-26T23:33:34.614Z,1011.69
2017-05-26T23:34:34.606Z,1011.69
2017-05-26T23:35:34.596Z,1011.67
2017-05-26T23:36:34.586Z,1011.68
2017-05-26T23:37:34.577Z,1011.68
2017-05-26T23:38:34.571Z,1011.7
2017-05-26T23:39:34.559Z,1011.68
2017-05-26T23:40:34.549Z,1011.63
2017-05-26T23:41:34.540Z,1011.63
2017-05-26T23:42:34.532Z,1011.59
2017-05-26T23:43:34.520Z,1011.62
2017-05-26T23:44:34.513Z,1011.59
2017-05-26T23:45:34.505Z,1011.6
2017-05-26T23:46:34.494Z,1011.61
2017-05-26T23:47:34.486Z,1011.58
2017-05-26T23:48:34.475Z,1011.58
2017-05-26T23:49:34.467Z,1011.61
2017-05-26T23:50:34.458Z,1011.54
2017-05-26T23:51:34.447Z,1011.55
2017-05-26T23:52:34.446Z,1011.51
2017-05-26T23:53:34.429Z,1011.53
2017-05-26T23:54:34.419Z,1011.56
2017-05-26T23:55:34.411Z,1011.55
2017-05-26T23:56:34.402Z,1011.56
2017-05-26T23:57:34.393Z,1011.54
2017-05-26T23:58:34.383Z,1011.57
2017-05-26T23:59:34.373Z,1011.57
